createdAt,value
2019-04-28T00:01:52.463Z,99.90
2019-04-28T00:04:21.487Z,99.90
2019-04-28T00:06:51.554Z,99.90
2019-04-28T00:09:21.561Z,99.90
2019-04-28T00:11:51.742Z,99.90
2019-04-28T00:14:21.881Z,99.90
2019-04-28T00:16:51.163Z,99.90
2019-04-28T00:19:21.087Z,99.90
2019-04-28T00:21:56.685Z,99.90
2019-04-28T00:24:32.779Z,99.90
2019-04-28T00:27:02.814Z,99.90
2019-04-28T00:29:38.642Z,99.90
2019-04-28T00:32:01.616Z,99.90
2019-04-28T00:34:31.121Z,99.90
2019-04-28T00:37:01.517Z,99.90
2019-04-28T00:39:31.012Z,99.90
2019-04-28T00:42:03.044Z,99.90
2019-04-28T00:44:31.449Z,99.90
2019-04-28T00:47:01.109Z,99.90
2019-04-28T00:49:48.105Z,99.90
2019-04-28T00:52:18.572Z,99.90
2019-04-28T00:54:48.058Z,99.90
2019-04-28T00:57:17.054Z,99.90
2019-04-28T00:59:55.213Z,99.90
2019-04-28T01:02:17.940Z,99.90
2019-04-28T01:04:46.389Z,99.90
2019-04-28T01:07:14.868Z,99.90
2019-04-28T01:09:43.338Z,99.90
2019-04-28T01:12:11.930Z,99.90
2019-04-28T01:14:40.964Z,99.90
2019-04-28T01:17:15.249Z,99.90
2019-04-28T01:19:45.408Z,99.90
2019-04-28T01:22:15.369Z,99.90
2019-04-28T01:24:43.815Z,99.90
2019-04-28T01:27:30.396Z,99.90
2019-04-28T01:30:08.301Z,99.90
2019-04-28T01:32:35.555Z,99.90
2019-04-28T01:35:05.305Z,99.90
2019-04-28T01:37:33.835Z,99.90
2019-04-28T01:40:02.313Z,99.90
2019-04-28T01:42:30.792Z,99.90
2019-04-28T01:45:00.615Z,99.90
2019-04-28T01:47:30.563Z,99.90
2019-04-28T01:50:00.194Z,99.90
2019-04-28T01:52:30.318Z,99.90
2019-04-28T01:55:00.473Z,99.90
2019-04-28T01:57:29.914Z,99.90
2019-04-28T01:59:59.760Z,99.90
2019-04-28T02:02:29.994Z,99.90
2019-04-28T02:04:59.878Z,99.90
2019-04-28T02:07:32.619Z,99.90
2019-04-28T02:10:00.561Z,99.90
2019-04-28T02:12:30.458Z,99.90
2019-04-28T02:15:01.071Z,99.90
2019-04-28T02:17:30.444Z,99.90
2019-04-28T02:20:00.583Z,99.90
2019-04-28T02:22:32.223Z,99.90
2019-04-28T02:25:00.753Z,99.90
2019-04-28T02:27:30.201Z,99.90
2019-04-28T02:30:00.183Z,99.90
2019-04-28T02:32:30.830Z,99.90
2019-04-28T02:35:01.262Z,99.90
2019-04-28T02:37:30.564Z,99.90
2019-04-28T02:40:00.464Z,99.90
2019-04-28T02:42:30.979Z,99.90
2019-04-28T02:45:00.570Z,99.90
2019-04-28T02:47:33.530Z,99.90
2019-04-28T02:50:06.752Z,99.90
2019-04-28T02:52:53.242Z,99.90
2019-04-28T02:55:21.712Z,99.90
2019-04-28T02:57:51.601Z,99.90
2019-04-28T03:00:21.854Z,99.90
2019-04-28T03:02:51.375Z,99.90
2019-04-28T03:05:21.500Z,99.90
2019-04-28T03:07:51.420Z,99.90
2019-04-28T03:10:21.333Z,99.90
2019-04-28T03:12:51.854Z,99.90
2019-04-28T03:15:20.730Z,99.90
2019-04-28T03:17:52.543Z,99.90
2019-04-28T03:20:21.043Z,99.90
2019-04-28T03:22:51.015Z,99.90
2019-04-28T03:25:21.502Z,99.90
2019-04-28T03:28:07.028Z,99.90
2019-04-28T03:30:54.435Z,99.90
2019-04-28T03:33:26.141Z,99.90
2019-04-28T03:35:55.107Z,99.90
2019-04-28T03:38:23.665Z,99.90
2019-04-28T03:40:52.550Z,99.90
2019-04-28T03:43:21.398Z,99.90
2019-04-28T03:45:51.715Z,99.90
2019-04-28T03:48:21.060Z,99.90
2019-04-28T03:50:51.385Z,99.90
2019-04-28T03:53:20.709Z,99.90
2019-04-28T03:55:51.323Z,99.90
2019-04-28T03:58:23.775Z,99.90
2019-04-28T04:00:50.628Z,99.90
2019-04-28T04:03:20.985Z,99.90
2019-04-28T04:05:50.762Z,99.90
2019-04-28T04:08:21.006Z,99.90
2019-04-28T04:10:54.288Z,99.90
2019-04-28T04:13:27.102Z,99.90
2019-04-28T04:16:01.663Z,99.90
2019-04-28T04:18:31.990Z,99.90
2019-04-28T04:21:01.022Z,99.90
2019-04-28T04:23:30.846Z,99.90
2019-04-28T04:26:01.820Z,99.90
2019-04-28T04:28:30.478Z,99.90
2019-04-28T04:31:02.487Z,99.90
2019-04-28T04:33:31.053Z,99.90
2019-04-28T04:36:01.659Z,99.90
2019-04-28T04:38:31.202Z,99.90
2019-04-28T04:41:01.444Z,99.90
2019-04-28T04:43:31.176Z,99.90
2019-04-28T04:46:14.224Z,99.90
2019-04-28T04:48:44.041Z,99.90
2019-04-28T04:51:12.559Z,99.90
2019-04-28T04:53:41.096Z,99.90
2019-04-28T04:56:10.494Z,99.90
2019-04-28T04:58:40.647Z,99.90
2019-04-28T05:01:14.305Z,99.90
2019-04-28T05:03:50.308Z,99.90
2019-04-28T05:06:39.945Z,99.90
2019-04-28T05:09:10.238Z,99.90
2019-04-28T05:11:40.003Z,99.90
2019-04-28T05:14:11.655Z,99.90
2019-04-28T05:16:39.877Z,99.90
2019-04-28T05:19:10.123Z,99.90
2019-04-28T05:21:40.148Z,99.90
2019-04-28T05:24:22.714Z,99.90
2019-04-28T05:26:51.588Z,99.90
2019-04-28T05:29:26.492Z,99.90
2019-04-28T05:31:50.626Z,99.90
2019-04-28T05:34:23.915Z,99.90
2019-04-28T05:36:51.447Z,99.90
2019-04-28T05:39:19.915Z,99.90
2019-04-28T05:41:50.259Z,99.90
2019-04-28T05:44:20.096Z,99.90
2019-04-28T05:46:50.582Z,99.90
2019-04-28T05:49:21.103Z,99.90
2019-04-28T05:51:51.208Z,99.90
2019-04-28T05:54:21.320Z,99.90
2019-04-28T05:57:02.375Z,99.90
2019-04-28T05:59:50.582Z,99.90
2019-04-28T06:02:39.708Z,99.90
2019-04-28T06:05:10.153Z,99.90
2019-04-28T06:07:43.179Z,99.90
2019-04-28T06:10:12.558Z,99.90
2019-04-28T06:12:41.117Z,99.90
2019-04-28T06:15:10.381Z,99.90
2019-04-28T06:17:40.009Z,99.90
2019-04-28T06:20:11.599Z,99.90
2019-04-28T06:22:39.178Z,99.90
2019-04-28T06:25:07.776Z,99.90
2019-04-28T06:27:36.261Z,99.90
2019-04-28T06:30:06.643Z,99.90
2019-04-28T06:32:35.609Z,99.90
2019-04-28T06:35:05.907Z,99.90
2019-04-28T06:37:34.761Z,99.90
2019-04-28T06:40:06.790Z,99.90
2019-04-28T06:42:35.511Z,99.90
2019-04-28T06:45:05.828Z,99.90
2019-04-28T06:47:34.278Z,99.90
2019-04-28T06:50:02.809Z,99.90
2019-04-28T06:52:31.266Z,99.90
2019-04-28T06:55:00.175Z,99.90
2019-04-28T06:57:28.641Z,99.90
2019-04-28T06:59:57.111Z,99.90
2019-04-28T07:02:25.553Z,99.90
2019-04-28T07:05:01.692Z,99.90
2019-04-28T07:07:24.379Z,99.90
2019-04-28T07:09:53.215Z,99.90
2019-04-28T07:12:21.657Z,99.90
2019-04-28T07:14:50.383Z,99.90
2019-04-28T07:17:18.855Z,99.90
2019-04-28T07:19:48.952Z,99.90
2019-04-28T07:22:19.068Z,99.90
2019-04-28T07:24:47.805Z,99.90
2019-04-28T07:27:16.593Z,99.90
2019-04-28T07:29:45.106Z,99.90
2019-04-28T07:32:13.593Z,99.90
2019-04-28T07:34:42.057Z,99.90
2019-04-28T07:37:10.852Z,99.90
2019-04-28T07:39:39.314Z,99.90
2019-04-28T07:42:07.771Z,99.90
2019-04-28T07:44:36.261Z,99.90
2019-04-28T07:47:04.943Z,99.90
2019-04-28T07:49:33.388Z,99.90
2019-04-28T07:52:03.513Z,99.90
2019-04-28T07:54:32.233Z,99.90
2019-04-28T07:57:00.688Z,99.90
2019-04-28T07:59:29.143Z,99.90
2019-04-28T08:01:57.901Z,99.90
2019-04-28T08:04:26.419Z,99.90
2019-04-28T08:06:55.021Z,99.90
2019-04-28T08:09:23.824Z,99.90
2019-04-28T08:11:53.043Z,99.90
2019-04-28T08:14:21.793Z,99.90
2019-04-28T08:16:50.255Z,99.90
2019-04-28T08:19:18.732Z,99.90
2019-04-28T08:21:47.177Z,99.90
2019-04-28T08:24:15.915Z,99.90
2019-04-28T08:26:44.739Z,99.90
2019-04-28T08:29:13.185Z,99.90
2019-04-28T08:31:43.660Z,99.90
2019-04-28T08:34:12.488Z,99.90
2019-04-28T08:36:40.950Z,99.90
2019-04-28T08:39:09.485Z,99.90
2019-04-28T08:41:37.949Z,99.90
2019-04-28T08:44:06.426Z,99.90
2019-04-28T08:46:34.928Z,99.90
2019-04-28T08:49:03.383Z,99.90
2019-04-28T08:51:32.131Z,99.90
2019-04-28T08:54:00.933Z,99.90
2019-04-28T08:56:29.463Z,99.90
2019-04-28T08:58:57.919Z,99.90
2019-04-28T09:01:26.889Z,99.90
2019-04-28T09:03:55.373Z,99.90
2019-04-28T09:06:23.828Z,99.90
2019-04-28T09:08:52.361Z,99.90
2019-04-28T09:11:20.819Z,99.90
2019-04-28T09:13:49.527Z,99.90
2019-04-28T09:16:17.989Z,99.90
2019-04-28T09:18:46.764Z,99.90
2019-04-28T09:21:15.311Z,99.90
2019-04-28T09:23:43.763Z,99.90
2019-04-28T09:26:12.227Z,99.90
2019-04-28T09:28:40.683Z,99.60
2019-04-28T09:31:09.426Z,99.80
2019-04-28T09:33:37.874Z,98.90
2019-04-28T09:36:06.591Z,99.70
2019-04-28T09:38:35.128Z,99.90
2019-04-28T09:41:03.925Z,99.80
2019-04-28T09:43:57.387Z,98.80
2019-04-28T09:46:27.492Z,99.40
2019-04-28T09:48:56.192Z,98.80
2019-04-28T09:51:24.667Z,99.20
2019-04-28T09:53:53.148Z,99.50
2019-04-28T09:56:21.633Z,99.50
2019-04-28T09:58:50.097Z,99.90
2019-04-28T10:01:18.555Z,99.60
2019-04-28T10:03:47.017Z,99.70
2019-04-28T10:06:15.565Z,98.90
2019-04-28T10:08:44.043Z,97.30
2019-04-28T10:11:12.506Z,97.50
2019-04-28T10:13:40.992Z,97.80
2019-04-28T10:16:09.444Z,97.40
2019-04-28T10:18:37.989Z,99.30
2019-04-28T10:21:06.602Z,98.20
2019-04-28T10:23:35.046Z,97.40
2019-04-28T10:26:03.658Z,96.10
2019-04-28T10:28:32.111Z,96.80
2019-04-28T10:31:00.876Z,96.60
2019-04-28T10:33:29.357Z,96.60
2019-04-28T10:35:58.273Z,96.20
2019-04-28T10:38:26.805Z,95.70
2019-04-28T10:41:05.807Z,96.10
2019-04-28T10:43:34.348Z,95.90
2019-04-28T10:46:03.246Z,96.50
2019-04-28T10:48:31.711Z,96.80
2019-04-28T10:51:01.314Z,97.20
2019-04-28T10:53:29.873Z,97.10
2019-04-28T10:55:58.619Z,97.20
2019-04-28T10:58:27.237Z,96.70
2019-04-28T11:00:55.676Z,96.00
2019-04-28T11:03:24.479Z,96.70
2019-04-28T11:05:52.942Z,97.40
2019-04-28T11:08:31.803Z,97.90
2019-04-28T11:11:02.052Z,97.90
2019-04-28T11:13:30.678Z,98.80
2019-04-28T11:15:59.151Z,99.40
2019-04-28T11:18:27.686Z,99.90
2019-04-28T11:20:56.278Z,99.90
2019-04-28T11:23:24.744Z,99.90
2019-04-28T11:25:53.353Z,99.90
2019-04-28T11:28:21.879Z,99.90
2019-04-28T11:30:50.355Z,99.90
2019-04-28T11:33:32.365Z,99.90
2019-04-28T11:36:01.059Z,99.90
2019-04-28T11:38:29.522Z,99.90
2019-04-28T11:40:58.129Z,99.90
2019-04-28T11:43:26.585Z,99.90
2019-04-28T11:45:55.067Z,99.90
2019-04-28T11:48:23.541Z,99.90
2019-04-28T11:50:52.322Z,99.90
2019-04-28T11:53:20.837Z,99.90
2019-04-28T11:55:49.383Z,99.90
2019-04-28T11:58:18.107Z,99.90
2019-04-28T12:00:46.631Z,99.90
2019-04-28T12:03:15.485Z,99.90
2019-04-28T12:05:45.583Z,99.20
2019-04-28T12:08:14.159Z,99.90
2019-04-28T12:10:49.976Z,99.90
2019-04-28T12:13:38.147Z,99.90
2019-04-28T12:16:24.468Z,99.90
2019-04-28T12:18:54.583Z,99.90
2019-04-28T12:21:23.161Z,99.90
2019-04-28T12:23:51.985Z,99.90
2019-04-28T12:26:20.691Z,99.70
2019-04-28T12:28:49.314Z,99.10
2019-04-28T12:31:17.772Z,99.30
2019-04-28T12:33:46.325Z,99.40
2019-04-28T12:36:14.779Z,98.40
2019-04-28T12:38:43.253Z,98.70
2019-04-28T12:41:11.693Z,97.30
2019-04-28T12:43:40.185Z,97.80
2019-04-28T12:46:08.703Z,97.10
2019-04-28T12:48:37.151Z,96.80
2019-04-28T12:51:05.763Z,96.70
2019-04-28T12:53:34.216Z,96.90
2019-04-28T12:56:02.957Z,95.60
2019-04-28T12:58:31.432Z,96.00
2019-04-28T13:01:16.971Z,96.10
2019-04-28T13:03:47.120Z,96.60
2019-04-28T13:06:19.909Z,96.40
2019-04-28T13:08:48.363Z,95.50
2019-04-28T13:11:16.848Z,95.20
2019-04-28T13:13:46.896Z,96.10
2019-04-28T13:16:15.907Z,96.20
2019-04-28T13:18:44.389Z,96.30
2019-04-28T13:21:13.212Z,94.90
2019-04-28T13:23:41.707Z,94.90
2019-04-28T13:26:10.552Z,94.30
2019-04-28T13:28:39.283Z,96.90
2019-04-28T13:31:08.018Z,96.30
2019-04-28T13:33:36.511Z,94.60
2019-04-28T13:36:14.762Z,94.30
2019-04-28T13:38:35.297Z,94.70
2019-04-28T13:41:04.204Z,92.70
2019-04-28T13:43:32.659Z,92.50
2019-04-28T13:46:01.140Z,92.70
2019-04-28T13:48:29.615Z,91.50
2019-04-28T13:50:58.227Z,90.50
2019-04-28T13:53:27.029Z,89.90
2019-04-28T13:55:59.718Z,90.20
2019-04-28T13:58:29.862Z,91.40
2019-04-28T14:01:15.003Z,91.40
2019-04-28T14:04:01.597Z,91.60
2019-04-28T14:06:41.044Z,90.80
2019-04-28T14:09:11.733Z,91.70
2019-04-28T14:11:40.230Z,91.70
2019-04-28T14:14:08.704Z,90.80
2019-04-28T14:16:37.236Z,90.50
2019-04-28T14:19:05.882Z,90.60
2019-04-28T14:21:34.396Z,89.30
2019-04-28T14:24:02.888Z,85.00
2019-04-28T14:26:31.398Z,87.60
2019-04-28T14:28:59.886Z,87.70
2019-04-28T14:31:28.344Z,86.90
2019-04-28T14:33:56.835Z,88.70
2019-04-28T14:36:25.283Z,88.90
2019-04-28T14:38:53.831Z,88.40
2019-04-28T14:41:22.352Z,89.30
2019-04-28T14:43:50.844Z,85.50
2019-04-28T14:46:19.379Z,86.10
2019-04-28T14:48:48.199Z,84.60
2019-04-28T14:51:16.874Z,83.60
2019-04-28T14:53:45.365Z,84.20
2019-04-28T14:56:13.845Z,84.90
2019-04-28T14:58:42.313Z,82.70
2019-04-28T15:01:18.540Z,84.30
2019-04-28T15:03:48.712Z,84.30
2019-04-28T15:06:34.558Z,83.40
2019-04-28T15:09:04.856Z,84.70
2019-04-28T15:11:34.962Z,85.00
2019-04-28T15:14:03.663Z,85.50
2019-04-28T15:16:32.193Z,85.90
2019-04-28T15:19:00.669Z,86.00
2019-04-28T15:21:29.150Z,86.10
2019-04-28T15:23:57.681Z,85.70
2019-04-28T15:26:26.162Z,82.20
2019-04-28T15:28:54.652Z,85.30
2019-04-28T15:31:23.098Z,85.60
2019-04-28T15:33:51.546Z,86.90
2019-04-28T15:36:20.017Z,83.90
2019-04-28T15:38:48.491Z,87.50
2019-04-28T15:41:21.847Z,87.90
2019-04-28T15:43:47.443Z,86.30
2019-04-28T15:46:15.899Z,88.40
2019-04-28T15:48:44.369Z,89.20
2019-04-28T15:51:13.215Z,90.00
2019-04-28T15:53:43.345Z,90.10
2019-04-28T15:56:15.914Z,90.20
2019-04-28T15:58:44.459Z,90.40
2019-04-28T16:01:12.944Z,90.20
2019-04-28T16:03:41.404Z,89.10
2019-04-28T16:06:10.162Z,84.40
2019-04-28T16:08:38.615Z,86.60
2019-04-28T16:11:07.094Z,85.60
2019-04-28T16:13:35.901Z,87.30
2019-04-28T16:16:04.593Z,89.70
2019-04-28T16:18:33.047Z,89.50
2019-04-28T16:21:02.490Z,89.20
2019-04-28T16:23:30.939Z,88.40
2019-04-28T16:25:59.748Z,86.20
2019-04-28T16:28:28.270Z,88.80
2019-04-28T16:30:56.772Z,90.00
2019-04-28T16:33:25.209Z,87.30
2019-04-28T16:35:53.993Z,87.90
2019-04-28T16:38:22.476Z,89.10
2019-04-28T16:40:51.762Z,89.40
2019-04-28T16:43:21.006Z,89.20
2019-04-28T16:45:49.751Z,90.10
2019-04-28T16:48:18.207Z,89.90
2019-04-28T16:50:46.698Z,90.20
2019-04-28T16:53:15.514Z,90.50
2019-04-28T16:55:45.930Z,90.50
2019-04-28T16:58:18.874Z,90.70
2019-04-28T17:00:58.558Z,90.70
2019-04-28T17:03:28.811Z,91.00
2019-04-28T17:05:57.297Z,90.60
2019-04-28T17:08:26.060Z,90.80
2019-04-28T17:10:54.521Z,91.10
2019-04-28T17:13:22.965Z,91.30
2019-04-28T17:15:51.460Z,91.40
2019-04-28T17:18:19.901Z,91.00
2019-04-28T17:20:48.383Z,91.40
2019-04-28T17:23:16.841Z,91.10
2019-04-28T17:25:45.281Z,91.30
2019-04-28T17:28:13.924Z,91.40
2019-04-28T17:30:42.380Z,91.50
2019-04-28T17:33:10.831Z,91.80
2019-04-28T17:35:39.297Z,91.90
2019-04-28T17:38:07.769Z,92.20
2019-04-28T17:40:36.709Z,92.10
2019-04-28T17:43:05.751Z,92.40
2019-04-28T17:45:34.227Z,92.70
2019-04-28T17:48:07.053Z,93.60
2019-04-28T17:50:37.208Z,94.20
2019-04-28T17:53:05.679Z,94.40
2019-04-28T17:55:34.191Z,94.50
2019-04-28T17:58:02.726Z,94.50
2019-04-28T18:00:38.555Z,95.00
2019-04-28T18:03:08.685Z,95.30
2019-04-28T18:05:38.838Z,95.60
2019-04-28T18:08:20.100Z,95.90
2019-04-28T18:10:37.752Z,96.10
2019-04-28T18:13:06.521Z,96.40
2019-04-28T18:15:48.457Z,96.20
2019-04-28T18:18:18.637Z,96.00
2019-04-28T18:20:47.208Z,96.10
2019-04-28T18:23:15.667Z,96.20
2019-04-28T18:25:44.201Z,96.10
2019-04-28T18:28:13.001Z,96.10
2019-04-28T18:30:43.090Z,96.20
2019-04-28T18:33:13.187Z,96.40
2019-04-28T18:35:43.313Z,96.50
2019-04-28T18:38:13.403Z,96.50
2019-04-28T18:40:43.515Z,96.60
2019-04-28T18:43:13.629Z,96.40
2019-04-28T18:45:42.142Z,96.60
2019-04-28T18:48:10.623Z,96.60
2019-04-28T18:50:39.101Z,96.90
2019-04-28T18:53:07.694Z,96.10
2019-04-28T18:55:36.176Z,97.00
2019-04-28T18:58:04.686Z,96.70
2019-04-28T19:00:34.817Z,96.70
2019-04-28T19:03:03.364Z,96.70
2019-04-28T19:05:33.469Z,96.20
2019-04-28T19:08:18.286Z,96.20
2019-04-28T19:11:05.272Z,96.00
2019-04-28T19:13:44.402Z,95.80
2019-04-28T19:16:20.405Z,95.50
2019-04-28T19:18:53.294Z,96.10
2019-04-28T19:21:21.762Z,96.20
2019-04-28T19:23:50.209Z,96.10
2019-04-28T19:26:18.766Z,95.80
2019-04-28T19:28:47.227Z,95.90
2019-04-28T19:31:15.687Z,95.90
2019-04-28T19:33:44.166Z,96.30
2019-04-28T19:36:12.639Z,96.30
2019-04-28T19:38:41.119Z,96.40
2019-04-28T19:41:09.595Z,96.60
2019-04-28T19:43:38.138Z,96.60
2019-04-28T19:46:08.265Z,96.80
2019-04-28T19:48:37.031Z,96.90
2019-04-28T19:51:05.512Z,97.10
2019-04-28T19:53:33.992Z,97.30
2019-04-28T19:56:04.080Z,97.30
2019-04-28T19:58:36.867Z,97.80
2019-04-28T20:01:09.917Z,98.10
2019-04-28T20:03:38.623Z,98.80
2019-04-28T20:06:07.099Z,99.00
2019-04-28T20:08:35.567Z,99.10
2019-04-28T20:11:04.039Z,99.10
2019-04-28T20:13:32.484Z,99.80
2019-04-28T20:16:00.960Z,99.60
2019-04-28T20:18:29.751Z,99.90
2019-04-28T20:20:58.299Z,99.80
2019-04-28T20:23:26.755Z,99.90
2019-04-28T20:25:55.266Z,99.70
2019-04-28T20:28:23.773Z,99.90
2019-04-28T20:30:52.251Z,99.90
2019-04-28T20:33:21.085Z,99.90
2019-04-28T20:35:51.172Z,99.90
2019-04-28T20:38:29.762Z,99.90
2019-04-28T20:41:00.111Z,99.90
2019-04-28T20:43:29.743Z,99.90
2019-04-28T20:45:58.197Z,99.90
2019-04-28T20:48:26.651Z,99.90
2019-04-28T20:50:55.136Z,99.90
2019-04-28T20:53:23.605Z,99.90
2019-04-28T20:55:52.095Z,99.90
2019-04-28T20:58:20.564Z,99.90
2019-04-28T21:00:49.019Z,99.90
2019-04-28T21:03:17.561Z,99.90
2019-04-28T21:05:46.473Z,99.90
2019-04-28T21:08:14.935Z,99.90
2019-04-28T21:10:43.735Z,99.90
2019-04-28T21:13:12.181Z,99.90
2019-04-28T21:15:40.663Z,99.90
2019-04-28T21:18:09.415Z,99.90
2019-04-28T21:20:37.900Z,99.90
2019-04-28T21:23:06.351Z,99.90
2019-04-28T21:25:34.830Z,99.90
2019-04-28T21:28:03.359Z,99.90
2019-04-28T21:30:31.840Z,99.90
2019-04-28T21:33:00.359Z,99.90
2019-04-28T21:35:28.891Z,99.90
2019-04-28T21:37:57.361Z,99.90
2019-04-28T21:40:26.573Z,99.90
2019-04-28T21:42:59.373Z,99.90
2019-04-28T21:45:44.569Z,99.90
2019-04-28T21:48:14.958Z,99.90
2019-04-28T21:50:43.410Z,99.90
2019-04-28T21:53:11.873Z,99.90
2019-04-28T21:55:40.334Z,99.90
2019-04-28T21:58:08.802Z,99.90
2019-04-28T22:00:41.992Z,99.90
2019-04-28T22:03:10.458Z,99.90
2019-04-28T22:05:38.924Z,99.90
2019-04-28T22:08:07.369Z,99.90
2019-04-28T22:10:35.919Z,99.90
2019-04-28T22:13:04.453Z,99.90
2019-04-28T22:15:32.927Z,99.90
2019-04-28T22:18:01.655Z,99.90
2019-04-28T22:20:30.113Z,99.90
2019-04-28T22:23:00.576Z,99.90
2019-04-28T22:25:29.013Z,99.90
2019-04-28T22:27:57.497Z,99.90
2019-04-28T22:30:26.101Z,99.90
2019-04-28T22:32:54.549Z,99.90
2019-04-28T22:35:23.085Z,99.90
2019-04-28T22:37:51.529Z,99.90
2019-04-28T22:40:20.337Z,99.90
2019-04-28T22:42:49.129Z,99.90
2019-04-28T22:45:17.942Z,99.90
2019-04-28T22:47:46.437Z,99.90
2019-04-28T22:50:30.055Z,99.90
2019-04-28T22:52:58.553Z,99.90
2019-04-28T22:55:27.692Z,99.90
2019-04-28T22:58:13.210Z,99.90
2019-04-28T23:00:43.334Z,99.90
2019-04-28T23:03:14.074Z,99.90
2019-04-28T23:05:42.599Z,99.90
2019-04-28T23:08:11.087Z,99.90
2019-04-28T23:10:39.793Z,99.90
2019-04-28T23:13:08.306Z,99.90
2019-04-28T23:15:36.787Z,99.90
2019-04-28T23:18:05.302Z,99.90
2019-04-28T23:20:35.480Z,99.90
2019-04-28T23:23:05.664Z,99.90
2019-04-28T23:25:34.227Z,99.90
2019-04-28T23:28:02.673Z,99.90
2019-04-28T23:30:42.712Z,99.90
2019-04-28T23:33:11.184Z,99.90
2019-04-28T23:35:39.975Z,99.90
2019-04-28T23:38:08.526Z,99.90
2019-04-28T23:40:38.695Z,99.90
2019-04-28T23:43:11.741Z,99.90
2019-04-28T23:45:40.271Z,99.90
2019-04-28T23:48:08.736Z,99.90
2019-04-28T23:50:38.851Z,99.90
2019-04-28T23:53:11.540Z,99.90
2019-04-28T23:55:40.025Z,99.90
2019-04-28T23:58:08.479Z,99.90
